Estación Meteorológica Peña el Pijo (Robertgarden) [ 07/23/19 12:46:15 CEST ]

Fecha Hora Presion(HPa) Temp (°C) Humedad % Rocio (°C) Viento ( m/s) Direccion Lluvia 1Hora(mm) Lluvia 24H(mm) LLuvia Total(mm)
2019-Jan-31 01:01:51 998.100 5.9 81 2.9     0.51 0.51 167.83
2019-Jan-31 02:01:46 997.500 5.9 83 3.2     0.51 1.03 168.35
2019-Jan-31 03:01:47 996.900 5.6 83 2.9     0.51 1.55 168.86
2019-Jan-31 04:01:41 996.600 5.6 83 2.9 1.4 WNW   1.55 168.86
2019-Jan-31 05:01:48 996.100 6.5 84 4.0       1.55 168.86
2019-Jan-31 06:03:24 995.800 6.7 85 4.3     0.51 2.07 169.38
2019-Jan-31 07:01:43 995.600 6.9 86 4.7     0.51 2.59 169.90
2019-Jan-31 08:01:39 995.700 7.3 87 5.3     0.51 3.10 170.42
2019-Jan-31 09:01:50 995.800 7.3 86 5.1       3.10 170.42
2019-Jan-31 10:01:43 996.100 7.9 86 5.7     0.51 3.62 170.94
2019-Jan-31 11:01:54 996.200 8.4 86 6.2       3.62 170.94
2019-Jan-31 12:01:53 996.600 9.7 83 6.9 4.0 WNW   3.62 170.94
2019-Jan-31 13:01:33 996.100 10.6 76 6.5       3.62 170.94
2019-Jan-31 14:01:50 995.900 9.6 77 5.7       3.62 170.94
2019-Jan-31 15:01:58 995.300 9.8 78 6.1       3.62 170.94
2019-Jan-31 16:01:53 995.100 9.8 77 5.9       3.62 170.94
2019-Jan-31 17:01:36 995.300 8.8 77 4.9 2.4 NW   3.62 170.94
2019-Jan-31 18:01:36 995.100 8.8 79 5.3       3.62 170.94
2019-Jan-31 19:01:53 994.900 8.6 79 5.1       3.62 170.94
2019-Jan-31 20:01:55 994.200 8.8 77 4.9 2.7 NW   3.62 170.94
2019-Jan-31 21:01:46 993.700 9.3 77 5.4 1.5 WNW   3.62 170.94
2019-Jan-31 22:01:52 993.200 9.7 73 5.1 1.8 NW   3.62 170.94
2019-Jan-31 23:01:42 992.500 9.8 73 5.2 4.6 WNW   3.62 170.94

Temperatura Máxima:10°    Temperatura Mínima:
Presión Máxima:998.100 Hpa    Presión Mínima:992.500 Hpa


Volver